PAL585 RPLL-VVDN
Flight info
| Callsign | PAL585 |
|---|---|
| Flight time | N/A |
| Altitude | 40000 |
| Route | SIRCA2R SIRCA L628 IBOBI/N0462F340 L628 ARESI/K0850F340 L628 PCA/K0852F390 W2 CQ CQ2L |
| Aircraft | A333/H-SDE3GHIJ2J3J5M1RVWXY/LB2D1 |
Departure
| Time | N/A |
|---|---|
| Airport | Ninoy Aquino International Airport (RPLL) |
Arrival
| Time | 2026-04-25 07:10 |
|---|---|
| Airport | Da Nang International Airport (VVDN) |
| Time | Latitude | Longitude | Altitude | Speed | Heading |
|---|---|---|---|---|---|
| 2026-04-25 06:34 | 13.96295 | 109.56765 | 39915 ft | 456 kts | 269° |
| 2026-04-25 06:35 | 13.96180 | 109.45260 | 39904 ft | 446 kts | 269° |
| 2026-04-25 06:36 | 13.96112 | 109.38770 | 39910 ft | 446 kts | 270° |
| 2026-04-25 06:36 | 13.96049 | 109.32837 | 39912 ft | 448 kts | 269° |
| 2026-04-25 06:37 | 13.95978 | 109.26274 | 39461 ft | 453 kts | 269° |
| 2026-04-25 06:37 | 13.95942 | 109.23079 | 39150 ft | 450 kts | 269° |
| 2026-04-25 06:37 | 13.95905 | 109.19879 | 38840 ft | 449 kts | 269° |
| 2026-04-25 06:37 | 13.95870 | 109.16702 | 38531 ft | 449 kts | 269° |
| 2026-04-25 06:38 | 13.95833 | 109.13474 | 38240 ft | 450 kts | 270° |
| 2026-04-25 06:38 | 13.96026 | 109.10847 | 37975 ft | 451 kts | 281° |
| 2026-04-25 06:38 | 13.96588 | 109.08875 | 37794 ft | 451 kts | 292° |
| 2026-04-25 06:38 | 13.97774 | 109.06625 | 37585 ft | 451 kts | 305° |
| 2026-04-25 06:39 | 13.99180 | 109.04954 | 37403 ft | 453 kts | 316° |
| 2026-04-25 06:39 | 14.01777 | 109.03078 | 37134 ft | 455 kts | 333° |
| 2026-04-25 06:39 | 14.04762 | 109.02046 | 36866 ft | 456 kts | 347° |
| 2026-04-25 06:39 | 14.07871 | 109.01424 | 36621 ft | 457 kts | 347° |
| 2026-04-25 06:40 | 14.10966 | 109.00736 | 36333 ft | 457 kts | 346° |
| 2026-04-25 06:40 | 14.14095 | 109.00024 | 36040 ft | 456 kts | 346° |
| 2026-04-25 06:40 | 14.17192 | 108.99310 | 35655 ft | 459 kts | 346° |
| 2026-04-25 06:40 | 14.20291 | 108.98595 | 34867 ft | 463 kts | 346° |
| 2026-04-25 06:41 | 14.23428 | 108.97871 | 34190 ft | 460 kts | 346° |
| 2026-04-25 06:41 | 14.26500 | 108.97160 | 33327 ft | 458 kts | 346° |
| 2026-04-25 06:41 | 14.29631 | 108.96435 | 32295 ft | 460 kts | 346° |
| 2026-04-25 06:41 | 14.32662 | 108.95734 | 31288 ft | 462 kts | 346° |
| 2026-04-25 06:42 | 14.35845 | 108.94997 | 30264 ft | 462 kts | 346° |
| 2026-04-25 06:42 | 14.38940 | 108.94280 | 29214 ft | 456 kts | 347° |
| 2026-04-25 06:42 | 14.41992 | 108.93574 | 28096 ft | 436 kts | 347° |
| 2026-04-25 06:42 | 14.44967 | 108.92886 | 27079 ft | 425 kts | 347° |
| 2026-04-25 06:43 | 14.47830 | 108.92222 | 26095 ft | 422 kts | 346° |
| 2026-04-25 06:43 | 14.50647 | 108.91568 | 25128 ft | 420 kts | 346° |
| 2026-04-25 06:43 | 14.53494 | 108.90908 | 24148 ft | 416 kts | 346° |
| 2026-04-25 06:43 | 14.56273 | 108.90264 | 23184 ft | 410 kts | 346° |
| 2026-04-25 06:44 | 14.58977 | 108.89637 | 22252 ft | 403 kts | 346° |
| 2026-04-25 06:44 | 14.61641 | 108.89019 | 21208 ft | 393 kts | 346° |
| 2026-04-25 06:44 | 14.64241 | 108.88415 | 19812 ft | 391 kts | 346° |
| 2026-04-25 06:44 | 14.66808 | 108.87819 | 18579 ft | 385 kts | 346° |
| 2026-04-25 06:45 | 14.69339 | 108.87231 | 17351 ft | 379 kts | 346° |
| 2026-04-25 06:45 | 14.71781 | 108.86661 | 16186 ft | 372 kts | 346° |
| 2026-04-25 06:45 | 14.74225 | 108.86093 | 15042 ft | 364 kts | 346° |
| 2026-04-25 06:45 | 14.76630 | 108.85533 | 13914 ft | 357 kts | 347° |
| 2026-04-25 06:46 | 14.78980 | 108.84987 | 12781 ft | 351 kts | 347° |
| 2026-04-25 06:46 | 14.81326 | 108.84441 | 11613 ft | 344 kts | 347° |
| 2026-04-25 06:46 | 14.83601 | 108.83913 | 10560 ft | 336 kts | 347° |
| 2026-04-25 06:46 | 14.85850 | 108.83391 | 9655 ft | 324 kts | 347° |
| 2026-04-25 06:47 | 14.87935 | 108.82906 | 9849 ft | 297 kts | 347° |
| 2026-04-25 06:47 | 14.89852 | 108.82458 | 9819 ft | 282 kts | 348° |
| 2026-04-25 06:47 | 14.91738 | 108.82021 | 9671 ft | 273 kts | 348° |
| 2026-04-25 06:47 | 14.93602 | 108.81587 | 9332 ft | 273 kts | 348° |
| 2026-04-25 06:48 | 14.95397 | 108.81169 | 9033 ft | 271 kts | 348° |
| 2026-04-25 06:49 | 15.04323 | 108.79086 | 7978 ft | 266 kts | 348° |
| 2026-04-25 06:49 | 15.06153 | 108.78658 | 7956 ft | 267 kts | 348° |
| 2026-04-25 06:49 | 15.07959 | 108.78236 | 7972 ft | 266 kts | 348° |
| 2026-04-25 06:50 | 15.09762 | 108.77814 | 7988 ft | 266 kts | 348° |
| 2026-04-25 06:50 | 15.11557 | 108.77395 | 7965 ft | 266 kts | 348° |
| 2026-04-25 06:50 | 15.13357 | 108.76974 | 7981 ft | 267 kts | 348° |
| 2026-04-25 06:50 | 15.15158 | 108.76553 | 7970 ft | 266 kts | 348° |
| 2026-04-25 06:51 | 15.16954 | 108.76133 | 7956 ft | 266 kts | 348° |
| 2026-04-25 06:51 | 15.18726 | 108.75719 | 7857 ft | 268 kts | 348° |
| 2026-04-25 06:51 | 15.20510 | 108.75301 | 7746 ft | 266 kts | 348° |
| 2026-04-25 06:51 | 15.22293 | 108.74884 | 7637 ft | 267 kts | 348° |
| 2026-04-25 06:52 | 15.24073 | 108.74467 | 7536 ft | 266 kts | 348° |
| 2026-04-25 06:52 | 15.25889 | 108.74042 | 7436 ft | 265 kts | 348° |
| 2026-04-25 06:52 | 15.27658 | 108.73628 | 7327 ft | 264 kts | 348° |
| 2026-04-25 06:52 | 15.29434 | 108.73212 | 7208 ft | 265 kts | 348° |
| 2026-04-25 06:53 | 15.31221 | 108.72793 | 7070 ft | 263 kts | 348° |
| 2026-04-25 06:53 | 15.32972 | 108.72383 | 6930 ft | 263 kts | 348° |
| 2026-04-25 06:53 | 15.34750 | 108.71966 | 6780 ft | 264 kts | 348° |
| 2026-04-25 06:53 | 15.36531 | 108.71549 | 6704 ft | 262 kts | 348° |
| 2026-04-25 06:54 | 15.38291 | 108.71136 | 6586 ft | 262 kts | 348° |
| 2026-04-25 06:54 | 15.40084 | 108.70716 | 6511 ft | 261 kts | 348° |
| 2026-04-25 06:54 | 15.41775 | 108.70037 | 6353 ft | 265 kts | 328° |
| 2026-04-25 06:54 | 15.43210 | 108.68912 | 6149 ft | 263 kts | 323° |
| 2026-04-25 06:55 | 15.44641 | 108.67780 | 6053 ft | 262 kts | 323° |
| 2026-04-25 06:55 | 15.46056 | 108.66663 | 6135 ft | 262 kts | 324° |
| 2026-04-25 06:55 | 15.47440 | 108.65570 | 6134 ft | 252 kts | 324° |
| 2026-04-25 06:55 | 15.48783 | 108.64511 | 6148 ft | 234 kts | 324° |
| 2026-04-25 06:56 | 15.50030 | 108.63528 | 6156 ft | 221 kts | 324° |
| 2026-04-25 06:56 | 15.51262 | 108.62557 | 5735 ft | 225 kts | 324° |
| 2026-04-25 06:56 | 15.52505 | 108.61581 | 5262 ft | 229 kts | 324° |
| 2026-04-25 06:56 | 15.53754 | 108.60597 | 4897 ft | 228 kts | 324° |
| 2026-04-25 06:57 | 15.54997 | 108.59618 | 4534 ft | 227 kts | 324° |
| 2026-04-25 06:57 | 15.56226 | 108.58649 | 4347 ft | 224 kts | 324° |
| 2026-04-25 06:57 | 15.57447 | 108.57687 | 4380 ft | 226 kts | 324° |
| 2026-04-25 06:57 | 15.58666 | 108.56728 | 4365 ft | 227 kts | 324° |
| 2026-04-25 06:58 | 15.59909 | 108.55748 | 4363 ft | 227 kts | 324° |
| 2026-04-25 06:58 | 15.61131 | 108.54783 | 4368 ft | 227 kts | 323° |
| 2026-04-25 06:58 | 15.62101 | 108.53550 | 4356 ft | 229 kts | 301° |
| 2026-04-25 06:58 | 15.62880 | 108.52138 | 4381 ft | 230 kts | 302° |
| 2026-04-25 06:59 | 15.63676 | 108.50725 | 4376 ft | 230 kts | 302° |
| 2026-04-25 06:59 | 15.64476 | 108.49303 | 4369 ft | 229 kts | 302° |
| 2026-04-25 06:59 | 15.65271 | 108.47884 | 4361 ft | 229 kts | 302° |
| 2026-04-25 06:59 | 15.66048 | 108.46503 | 4296 ft | 226 kts | 302° |
| 2026-04-25 07:00 | 15.66825 | 108.45121 | 4194 ft | 219 kts | 302° |
| 2026-04-25 07:00 | 15.67575 | 108.43789 | 4114 ft | 217 kts | 302° |
| 2026-04-25 07:00 | 15.68336 | 108.42436 | 4066 ft | 217 kts | 302° |
| 2026-04-25 07:00 | 15.69080 | 108.41115 | 4017 ft | 217 kts | 302° |
| 2026-04-25 07:01 | 15.69840 | 108.39764 | 4003 ft | 213 kts | 302° |
| 2026-04-25 07:01 | 15.70559 | 108.38482 | 3970 ft | 201 kts | 302° |
| 2026-04-25 07:01 | 15.71253 | 108.37249 | 3970 ft | 198 kts | 302° |
| 2026-04-25 07:01 | 15.71939 | 108.36029 | 3979 ft | 197 kts | 302° |
| 2026-04-25 07:02 | 15.72629 | 108.34804 | 3979 ft | 197 kts | 302° |
| 2026-04-25 07:02 | 15.73324 | 108.33569 | 3974 ft | 197 kts | 302° |
| 2026-04-25 07:02 | 15.74008 | 108.32349 | 3969 ft | 197 kts | 302° |
| 2026-04-25 07:02 | 15.74703 | 108.31116 | 3957 ft | 197 kts | 301° |
| 2026-04-25 07:03 | 15.75391 | 108.29890 | 3956 ft | 197 kts | 302° |
| 2026-04-25 07:03 | 15.76072 | 108.28675 | 3952 ft | 197 kts | 302° |
| 2026-04-25 07:03 | 15.76749 | 108.27470 | 3901 ft | 192 kts | 302° |
| 2026-04-25 07:03 | 15.77426 | 108.26266 | 3887 ft | 194 kts | 302° |
| 2026-04-25 07:04 | 15.78113 | 108.25042 | 3930 ft | 198 kts | 302° |
| 2026-04-25 07:04 | 15.78898 | 108.23879 | 3886 ft | 195 kts | 314° |
| 2026-04-25 07:04 | 15.80065 | 108.23255 | 3919 ft | 192 kts | 354° |
| 2026-04-25 07:04 | 15.81390 | 108.23113 | 3935 ft | 194 kts | 354° |
| 2026-04-25 07:05 | 15.82716 | 108.22934 | 3805 ft | 195 kts | 353° |
| 2026-04-25 07:05 | 15.84075 | 108.22747 | 3567 ft | 194 kts | 354° |
| 2026-04-25 07:05 | 15.85385 | 108.22563 | 3332 ft | 192 kts | 353° |
| 2026-04-25 07:05 | 15.86696 | 108.22378 | 3102 ft | 189 kts | 353° |
| 2026-04-25 07:06 | 15.88011 | 108.22191 | 2858 ft | 189 kts | 353° |
| 2026-04-25 07:06 | 15.89296 | 108.22006 | 2614 ft | 188 kts | 353° |
| 2026-04-25 07:06 | 15.90578 | 108.21822 | 2369 ft | 187 kts | 353° |
| 2026-04-25 07:06 | 15.91845 | 108.21640 | 2129 ft | 188 kts | 354° |
| 2026-04-25 07:07 | 15.93133 | 108.21458 | 1888 ft | 186 kts | 353° |
| 2026-04-25 07:07 | 15.94387 | 108.21275 | 1653 ft | 178 kts | 354° |
| 2026-04-25 07:07 | 15.95561 | 108.21106 | 1479 ft | 162 kts | 354° |
| 2026-04-25 07:07 | 15.96662 | 108.20948 | 1286 ft | 150 kts | 353° |
| 2026-04-25 07:08 | 15.97642 | 108.20806 | 1046 ft | 138 kts | 354° |
| 2026-04-25 07:08 | 15.98570 | 108.20673 | 877 ft | 135 kts | 354° |
| 2026-04-25 07:08 | 15.99508 | 108.20546 | 680 ft | 135 kts | 356° |
| 2026-04-25 07:08 | 16.00432 | 108.20419 | 535 ft | 135 kts | 355° |
| 2026-04-25 07:09 | 16.01359 | 108.20288 | 384 ft | 133 kts | 355° |
| 2026-04-25 07:09 | 16.02268 | 108.20139 | 206 ft | 133 kts | 355° |
| 2026-04-25 07:09 | 16.03182 | 108.20012 | 57 ft | 132 kts | 356° |
| 2026-04-25 07:09 | 16.03993 | 108.19898 | 43 ft | 94 kts | 352° |
| 2026-04-25 07:10 | 16.04456 | 108.19831 | 43 ft | 42 kts | 352° |